sensor_id;sensor_type;location;lat;lon;timestamp;temperature;humidity
71237;DHT22;58984;51.960;5.582;2023-03-08T00:00:09;9.30;52.70
71237;DHT22;58984;51.960;5.582;2023-03-08T00:02:36;9.20;52.70
71237;DHT22;58984;51.960;5.582;2023-03-08T00:05:02;9.30;52.70
71237;DHT22;58984;51.960;5.582;2023-03-08T00:07:28;9.30;52.80
71237;DHT22;58984;51.960;5.582;2023-03-08T00:09:54;9.20;52.70
71237;DHT22;58984;51.960;5.582;2023-03-08T00:12:19;9.30;52.80
71237;DHT22;58984;51.960;5.582;2023-03-08T00:14:47;9.20;52.70
71237;DHT22;58984;51.960;5.582;2023-03-08T00:17:13;9.20;52.80
71237;DHT22;58984;51.960;5.582;2023-03-08T00:19:39;9.20;52.70
71237;DHT22;58984;51.960;5.582;2023-03-08T00:22:04;9.20;52.80
71237;DHT22;58984;51.960;5.582;2023-03-08T00:24:30;9.20;52.70
71237;DHT22;58984;51.960;5.582;2023-03-08T00:26:56;9.20;52.80
71237;DHT22;58984;51.960;5.582;2023-03-08T00:29:21;9.20;52.70
71237;DHT22;58984;51.960;5.582;2023-03-08T00:31:47;9.20;52.80
71237;DHT22;58984;51.960;5.582;2023-03-08T00:34:13;9.10;52.90
71237;DHT22;58984;51.960;5.582;2023-03-08T00:36:39;9.10;52.70
71237;DHT22;58984;51.960;5.582;2023-03-08T00:39:05;9.10;52.80
71237;DHT22;58984;51.960;5.582;2023-03-08T00:41:30;9.10;52.80
71237;DHT22;58984;51.960;5.582;2023-03-08T00:43:56;9.10;52.80
71237;DHT22;58984;51.960;5.582;2023-03-08T00:46:22;9.10;52.80
71237;DHT22;58984;51.960;5.582;2023-03-08T00:48:48;9.10;52.90
71237;DHT22;58984;51.960;5.582;2023-03-08T00:51:15;9.00;52.90
71237;DHT22;58984;51.960;5.582;2023-03-08T00:53:41;9.00;52.80
71237;DHT22;58984;51.960;5.582;2023-03-08T00:56:07;9.00;52.80
71237;DHT22;58984;51.960;5.582;2023-03-08T00:58:33;9.00;52.90
71237;DHT22;58984;51.960;5.582;2023-03-08T01:00:59;9.00;52.90
71237;DHT22;58984;51.960;5.582;2023-03-08T01:03:25;9.00;52.90
71237;DHT22;58984;51.960;5.582;2023-03-08T01:05:53;9.00;53.00
71237;DHT22;58984;51.960;5.582;2023-03-08T01:08:20;9.00;52.90
71237;DHT22;58984;51.960;5.582;2023-03-08T01:10:50;9.00;53.00
71237;DHT22;58984;51.960;5.582;2023-03-08T01:13:17;9.00;52.90
71237;DHT22;58984;51.960;5.582;2023-03-08T01:15:43;9.00;53.00
71237;DHT22;58984;51.960;5.582;2023-03-08T01:18:09;8.90;52.90
71237;DHT22;58984;51.960;5.582;2023-03-08T01:20:35;8.90;53.60
71237;DHT22;58984;51.960;5.582;2023-03-08T01:23:00;9.00;52.90
71237;DHT22;58984;51.960;5.582;2023-03-08T01:25:26;9.00;52.90
71237;DHT22;58984;51.960;5.582;2023-03-08T01:27:52;8.90;52.90
71237;DHT22;58984;51.960;5.582;2023-03-08T01:30:17;8.90;52.90
71237;DHT22;58984;51.960;5.582;2023-03-08T01:32:43;8.90;52.90
71237;DHT22;58984;51.960;5.582;2023-03-08T01:35:09;8.90;53.00
71237;DHT22;58984;51.960;5.582;2023-03-08T01:37:35;8.90;53.00
71237;DHT22;58984;51.960;5.582;2023-03-08T01:40:00;8.90;53.00
71237;DHT22;58984;51.960;5.582;2023-03-08T01:42:27;8.90;53.00
71237;DHT22;58984;51.960;5.582;2023-03-08T01:44:56;8.90;53.00
71237;DHT22;58984;51.960;5.582;2023-03-08T01:47:25;8.90;52.90
71237;DHT22;58984;51.960;5.582;2023-03-08T01:49:53;8.90;53.00
71237;DHT22;58984;51.960;5.582;2023-03-08T01:52:30;8.90;53.10
71237;DHT22;58984;51.960;5.582;2023-03-08T01:54:58;8.80;53.00
71237;DHT22;58984;51.960;5.582;2023-03-08T01:57:31;8.80;53.00
71237;DHT22;58984;51.960;5.582;2023-03-08T02:02:40;8.80;53.10
71237;DHT22;58984;51.960;5.582;2023-03-08T02:05:08;8.80;53.10
71237;DHT22;58984;51.960;5.582;2023-03-08T02:07:34;8.80;53.20
71237;DHT22;58984;51.960;5.582;2023-03-08T02:10:00;8.90;53.30
71237;DHT22;58984;51.960;5.582;2023-03-08T02:12:26;8.80;53.20
71237;DHT22;58984;51.960;5.582;2023-03-08T02:14:52;8.80;53.20
71237;DHT22;58984;51.960;5.582;2023-03-08T02:17:18;8.80;53.20
71237;DHT22;58984;51.960;5.582;2023-03-08T02:19:56;8.80;53.20
71237;DHT22;58984;51.960;5.582;2023-03-08T02:22:24;8.80;53.20
71237;DHT22;58984;51.960;5.582;2023-03-08T02:24:50;8.70;53.20
71237;DHT22;58984;51.960;5.582;2023-03-08T02:27:21;8.70;53.20
71237;DHT22;58984;51.960;5.582;2023-03-08T02:29:48;8.80;53.30
71237;DHT22;58984;51.960;5.582;2023-03-08T02:32:14;8.80;53.30
71237;DHT22;58984;51.960;5.582;2023-03-08T02:34:40;8.70;53.20
71237;DHT22;58984;51.960;5.582;2023-03-08T02:37:06;8.70;53.20
71237;DHT22;58984;51.960;5.582;2023-03-08T02:39:31;8.70;53.30
71237;DHT22;58984;51.960;5.582;2023-03-08T02:41:57;8.70;53.30
71237;DHT22;58984;51.960;5.582;2023-03-08T02:44:22;8.70;53.30
71237;DHT22;58984;51.960;5.582;2023-03-08T02:46:48;8.70;53.30
71237;DHT22;58984;51.960;5.582;2023-03-08T02:49:13;8.70;53.40
71237;DHT22;58984;51.960;5.582;2023-03-08T02:51:39;8.70;53.50
71237;DHT22;58984;51.960;5.582;2023-03-08T02:54:05;8.70;53.50
71237;DHT22;58984;51.960;5.582;2023-03-08T02:56:30;8.70;53.50
71237;DHT22;58984;51.960;5.582;2023-03-08T02:58:56;8.70;53.50
71237;DHT22;58984;51.960;5.582;2023-03-08T03:01:22;8.70;53.50
71237;DHT22;58984;51.960;5.582;2023-03-08T03:03:47;8.70;53.50
71237;DHT22;58984;51.960;5.582;2023-03-08T03:06:18;8.60;53.50
71237;DHT22;58984;51.960;5.582;2023-03-08T03:08:44;8.70;53.50
71237;DHT22;58984;51.960;5.582;2023-03-08T03:11:16;8.70;53.60
71237;DHT22;58984;51.960;5.582;2023-03-08T03:13:42;8.60;53.60
71237;DHT22;58984;51.960;5.582;2023-03-08T03:16:10;8.70;53.60
71237;DHT22;58984;51.960;5.582;2023-03-08T03:18:36;8.60;53.60
71237;DHT22;58984;51.960;5.582;2023-03-08T03:21:03;8.60;53.60
71237;DHT22;58984;51.960;5.582;2023-03-08T03:23:29;8.60;53.70
71237;DHT22;58984;51.960;5.582;2023-03-08T03:25:54;8.70;53.70
71237;DHT22;58984;51.960;5.582;2023-03-08T03:28:20;8.60;53.70
71237;DHT22;58984;51.960;5.582;2023-03-08T03:30:46;8.60;53.80
71237;DHT22;58984;51.960;5.582;2023-03-08T03:33:11;8.70;53.90
71237;DHT22;58984;51.960;5.582;2023-03-08T03:35:37;8.60;53.80
71237;DHT22;58984;51.960;5.582;2023-03-08T03:38:03;8.60;53.80
71237;DHT22;58984;51.960;5.582;2023-03-08T03:40:29;8.60;53.90
71237;DHT22;58984;51.960;5.582;2023-03-08T03:42:54;8.60;53.90
71237;DHT22;58984;51.960;5.582;2023-03-08T03:45:20;8.60;53.90
71237;DHT22;58984;51.960;5.582;2023-03-08T03:47:46;8.60;54.00
71237;DHT22;58984;51.960;5.582;2023-03-08T03:50:12;8.60;54.00
71237;DHT22;58984;51.960;5.582;2023-03-08T03:52:38;8.60;54.10
71237;DHT22;58984;51.960;5.582;2023-03-08T03:55:04;8.60;54.10
71237;DHT22;58984;51.960;5.582;2023-03-08T03:57:30;8.60;54.20
71237;DHT22;58984;51.960;5.582;2023-03-08T03:59:55;8.60;54.20
71237;DHT22;58984;51.960;5.582;2023-03-08T04:02:21;8.60;54.20
71237;DHT22;58984;51.960;5.582;2023-03-08T04:04:48;8.60;54.20
71237;DHT22;58984;51.960;5.582;2023-03-08T04:07:14;8.60;54.30
71237;DHT22;58984;51.960;5.582;2023-03-08T04:09:40;8.60;54.30
71237;DHT22;58984;51.960;5.582;2023-03-08T04:12:06;8.60;54.20
71237;DHT22;58984;51.960;5.582;2023-03-08T04:14:32;8.60;54.20
71237;DHT22;58984;51.960;5.582;2023-03-08T04:16:57;8.60;54.20
71237;DHT22;58984;51.960;5.582;2023-03-08T04:19:23;8.60;54.20
71237;DHT22;58984;51.960;5.582;2023-03-08T04:21:48;8.60;54.20
71237;DHT22;58984;51.960;5.582;2023-03-08T04:24:14;8.60;54.20
71237;DHT22;58984;51.960;5.582;2023-03-08T04:26:39;8.60;54.80
71237;DHT22;58984;51.960;5.582;2023-03-08T04:29:05;8.60;54.20
71237;DHT22;58984;51.960;5.582;2023-03-08T04:31:32;8.50;54.30
71237;DHT22;58984;51.960;5.582;2023-03-08T04:33:59;8.60;54.30
71237;DHT22;58984;51.960;5.582;2023-03-08T04:36:25;8.60;54.30
71237;DHT22;58984;51.960;5.582;2023-03-08T04:38:51;8.60;54.30
71237;DHT22;58984;51.960;5.582;2023-03-08T04:41:17;8.50;54.30
71237;DHT22;58984;51.960;5.582;2023-03-08T04:43:48;8.50;54.30
71237;DHT22;58984;51.960;5.582;2023-03-08T04:46:15;8.50;54.30
71237;DHT22;58984;51.960;5.582;2023-03-08T04:48:41;8.60;54.50
71237;DHT22;58984;51.960;5.582;2023-03-08T04:51:09;8.60;54.50
71237;DHT22;58984;51.960;5.582;2023-03-08T04:53:35;8.50;54.40
71237;DHT22;58984;51.960;5.582;2023-03-08T04:56:01;8.50;54.40
71237;DHT22;58984;51.960;5.582;2023-03-08T04:58:28;8.50;54.30
71237;DHT22;58984;51.960;5.582;2023-03-08T05:00:53;8.60;54.40
71237;DHT22;58984;51.960;5.582;2023-03-08T05:03:19;8.50;54.40
71237;DHT22;58984;51.960;5.582;2023-03-08T05:05:50;8.50;54.40
71237;DHT22;58984;51.960;5.582;2023-03-08T05:08:17;8.60;54.50
71237;DHT22;58984;51.960;5.582;2023-03-08T05:10:47;8.50;54.40
71237;DHT22;58984;51.960;5.582;2023-03-08T05:13:13;8.50;54.40
71237;DHT22;58984;51.960;5.582;2023-03-08T05:15:38;8.50;54.40
71237;DHT22;58984;51.960;5.582;2023-03-08T05:18:04;8.60;54.50
71237;DHT22;58984;51.960;5.582;2023-03-08T05:20:29;8.50;54.40
71237;DHT22;58984;51.960;5.582;2023-03-08T05:22:55;8.50;54.50
71237;DHT22;58984;51.960;5.582;2023-03-08T05:25:21;8.50;55.10
71237;DHT22;58984;51.960;5.582;2023-03-08T05:27:46;8.50;54.50
71237;DHT22;58984;51.960;5.582;2023-03-08T05:30:12;8.50;54.50
71237;DHT22;58984;51.960;5.582;2023-03-08T05:32:38;8.50;54.50
71237;DHT22;58984;51.960;5.582;2023-03-08T05:35:04;8.50;54.50
71237;DHT22;58984;51.960;5.582;2023-03-08T05:37:29;8.50;54.50
71237;DHT22;58984;51.960;5.582;2023-03-08T05:39:55;8.50;54.50
71237;DHT22;58984;51.960;5.582;2023-03-08T05:42:20;8.50;54.50
71237;DHT22;58984;51.960;5.582;2023-03-08T05:44:46;8.50;54.50
71237;DHT22;58984;51.960;5.582;2023-03-08T05:47:12;8.50;54.50
71237;DHT22;58984;51.960;5.582;2023-03-08T05:49:37;8.50;54.50
71237;DHT22;58984;51.960;5.582;2023-03-08T05:52:03;8.50;54.60
71237;DHT22;58984;51.960;5.582;2023-03-08T05:54:29;8.50;54.60
71237;DHT22;58984;51.960;5.582;2023-03-08T05:56:54;8.50;54.60
71237;DHT22;58984;51.960;5.582;2023-03-08T05:59:20;8.50;54.60
71237;DHT22;58984;51.960;5.582;2023-03-08T06:01:45;8.50;54.60
71237;DHT22;58984;51.960;5.582;2023-03-08T06:04:11;8.50;54.50
71237;DHT22;58984;51.960;5.582;2023-03-08T06:06:37;8.50;54.50
71237;DHT22;58984;51.960;5.582;2023-03-08T06:09:02;8.50;54.60
71237;DHT22;58984;51.960;5.582;2023-03-08T06:11:28;8.50;54.60
71237;DHT22;58984;51.960;5.582;2023-03-08T06:13:54;8.50;54.70
71237;DHT22;58984;51.960;5.582;2023-03-08T06:16:20;8.50;54.60
71237;DHT22;58984;51.960;5.582;2023-03-08T06:18:45;8.60;54.70
71237;DHT22;58984;51.960;5.582;2023-03-08T06:21:16;8.60;54.70
71237;DHT22;58984;51.960;5.582;2023-03-08T06:23:43;8.50;54.70
71237;DHT22;58984;51.960;5.582;2023-03-08T06:26:10;8.50;54.70
71237;DHT22;58984;51.960;5.582;2023-03-08T06:28:36;8.50;54.70
71237;DHT22;58984;51.960;5.582;2023-03-08T06:31:01;8.50;54.70
71237;DHT22;58984;51.960;5.582;2023-03-08T06:33:29;8.50;54.70
71237;DHT22;58984;51.960;5.582;2023-03-08T06:35:56;8.50;54.80
71237;DHT22;58984;51.960;5.582;2023-03-08T06:38:22;8.50;54.80
71237;DHT22;58984;51.960;5.582;2023-03-08T06:40:48;8.50;54.70
71237;DHT22;58984;51.960;5.582;2023-03-08T06:43:14;8.50;54.80
71237;DHT22;58984;51.960;5.582;2023-03-08T06:45:39;8.50;54.80
71237;DHT22;58984;51.960;5.582;2023-03-08T06:48:05;8.50;54.80
71237;DHT22;58984;51.960;5.582;2023-03-08T06:50:32;8.50;54.90
71237;DHT22;58984;51.960;5.582;2023-03-08T06:52:58;8.50;54.90
71237;DHT22;58984;51.960;5.582;2023-03-08T06:55:24;8.50;54.90
71237;DHT22;58984;51.960;5.582;2023-03-08T06:57:49;8.50;54.90
71237;DHT22;58984;51.960;5.582;2023-03-08T07:00:15;8.50;54.90
71237;DHT22;58984;51.960;5.582;2023-03-08T07:02:41;8.50;54.90
71237;DHT22;58984;51.960;5.582;2023-03-08T07:05:07;8.50;54.90
71237;DHT22;58984;51.960;5.582;2023-03-08T07:07:33;8.50;54.90
71237;DHT22;58984;51.960;5.582;2023-03-08T07:10:01;8.50;55.00
71237;DHT22;58984;51.960;5.582;2023-03-08T07:12:27;8.50;55.00
71237;DHT22;58984;51.960;5.582;2023-03-08T07:14:52;8.50;55.00
71237;DHT22;58984;51.960;5.582;2023-03-08T07:17:18;8.50;55.00
71237;DHT22;58984;51.960;5.582;2023-03-08T07:19:44;8.50;55.00
71237;DHT22;58984;51.960;5.582;2023-03-08T07:22:10;8.50;55.00
71237;DHT22;58984;51.960;5.582;2023-03-08T07:24:37;8.50;55.00
71237;DHT22;58984;51.960;5.582;2023-03-08T07:27:03;8.50;55.00
71237;DHT22;58984;51.960;5.582;2023-03-08T07:29:29;8.50;55.10
71237;DHT22;58984;51.960;5.582;2023-03-08T07:31:54;8.50;55.00
71237;DHT22;58984;51.960;5.582;2023-03-08T07:34:20;8.50;55.00
71237;DHT22;58984;51.960;5.582;2023-03-08T07:36:46;8.50;55.10
71237;DHT22;58984;51.960;5.582;2023-03-08T07:39:11;8.50;55.10
71237;DHT22;58984;51.960;5.582;2023-03-08T07:41:37;8.50;55.10
71237;DHT22;58984;51.960;5.582;2023-03-08T07:44:03;8.50;55.10
71237;DHT22;58984;51.960;5.582;2023-03-08T07:46:29;8.50;55.10
71237;DHT22;58984;51.960;5.582;2023-03-08T07:48:55;8.50;55.10
71237;DHT22;58984;51.960;5.582;2023-03-08T07:51:21;8.50;55.20
71237;DHT22;58984;51.960;5.582;2023-03-08T07:53:47;8.50;55.20
71237;DHT22;58984;51.960;5.582;2023-03-08T07:56:12;8.50;55.10
71237;DHT22;58984;51.960;5.582;2023-03-08T07:58:38;8.50;55.20
71237;DHT22;58984;51.960;5.582;2023-03-08T08:01:11;8.60;55.30
71237;DHT22;58984;51.960;5.582;2023-03-08T08:03:37;8.50;55.20
71237;DHT22;58984;51.960;5.582;2023-03-08T08:06:06;8.50;55.20
71237;DHT22;58984;51.960;5.582;2023-03-08T08:08:32;8.50;55.30
71237;DHT22;58984;51.960;5.582;2023-03-08T08:10:58;8.50;55.30
71237;DHT22;58984;51.960;5.582;2023-03-08T08:13:23;8.50;55.30
71237;DHT22;58984;51.960;5.582;2023-03-08T08:15:59;8.50;55.20
71237;DHT22;58984;51.960;5.582;2023-03-08T08:18:26;8.50;55.30
71237;DHT22;58984;51.960;5.582;2023-03-08T08:21:02;8.50;55.30
71237;DHT22;58984;51.960;5.582;2023-03-08T08:23:28;8.50;55.30
71237;DHT22;58984;51.960;5.582;2023-03-08T08:25:54;8.50;55.30
71237;DHT22;58984;51.960;5.582;2023-03-08T08:28:21;8.50;55.30
71237;DHT22;58984;51.960;5.582;2023-03-08T08:31:02;8.50;55.40
71237;DHT22;58984;51.960;5.582;2023-03-08T08:33:30;8.50;55.30
71237;DHT22;58984;51.960;5.582;2023-03-08T08:35:55;8.50;55.30
71237;DHT22;58984;51.960;5.582;2023-03-08T08:38:22;8.60;55.50
71237;DHT22;58984;51.960;5.582;2023-03-08T08:40:47;8.60;55.50
71237;DHT22;58984;51.960;5.582;2023-03-08T08:43:13;8.60;55.50
71237;DHT22;58984;51.960;5.582;2023-03-08T08:45:47;8.60;55.50
71237;DHT22;58984;51.960;5.582;2023-03-08T08:48:13;8.60;55.60
71237;DHT22;58984;51.960;5.582;2023-03-08T08:50:41;8.60;56.20
71237;DHT22;58984;51.960;5.582;2023-03-08T08:53:08;8.60;55.50
71237;DHT22;58984;51.960;5.582;2023-03-08T08:55:34;8.60;55.60
71237;DHT22;58984;51.960;5.582;2023-03-08T08:58:01;8.60;55.60
71237;DHT22;58984;51.960;5.582;2023-03-08T09:00:27;8.60;55.60
71237;DHT22;58984;51.960;5.582;2023-03-08T09:02:53;8.60;55.50
71237;DHT22;58984;51.960;5.582;2023-03-08T09:05:18;8.60;55.50
71237;DHT22;58984;51.960;5.582;2023-03-08T09:07:44;8.60;55.50
71237;DHT22;58984;51.960;5.582;2023-03-08T09:10:10;8.60;55.60
71237;DHT22;58984;51.960;5.582;2023-03-08T09:12:36;8.60;55.50
71237;DHT22;58984;51.960;5.582;2023-03-08T09:15:02;8.70;55.50
71237;DHT22;58984;51.960;5.582;2023-03-08T09:17:28;8.70;55.50
71237;DHT22;58984;51.960;5.582;2023-03-08T09:19:53;8.60;55.50
71237;DHT22;58984;51.960;5.582;2023-03-08T09:22:19;8.60;55.60
71237;DHT22;58984;51.960;5.582;2023-03-08T09:24:47;8.70;55.60
71237;DHT22;58984;51.960;5.582;2023-03-08T09:27:13;8.70;55.50
71237;DHT22;58984;51.960;5.582;2023-03-08T09:29:38;8.70;55.50
71237;DHT22;58984;51.960;5.582;2023-03-08T09:32:04;8.70;55.50
71237;DHT22;58984;51.960;5.582;2023-03-08T09:34:30;8.70;55.80
71237;DHT22;58984;51.960;5.582;2023-03-08T09:36:56;8.70;55.80
71237;DHT22;58984;51.960;5.582;2023-03-08T09:39:21;8.70;55.80
71237;DHT22;58984;51.960;5.582;2023-03-08T09:41:50;8.70;55.80
71237;DHT22;58984;51.960;5.582;2023-03-08T09:47:41;8.70;55.80
71237;DHT22;58984;51.960;5.582;2023-03-08T09:52:45;8.70;55.80
71237;DHT22;58984;51.960;5.582;2023-03-08T09:55:24;8.80;55.90
71237;DHT22;58984;51.960;5.582;2023-03-08T09:58:02;8.70;55.80
71237;DHT22;58984;51.960;5.582;2023-03-08T10:00:35;8.80;56.50
71237;DHT22;58984;51.960;5.582;2023-03-08T10:08:16;8.80;56.00
71237;DHT22;58984;51.960;5.582;2023-03-08T10:11:01;8.80;56.00
71237;DHT22;58984;51.960;5.582;2023-03-08T10:13:36;8.90;56.20
71237;DHT22;58984;51.960;5.582;2023-03-08T10:18:37;8.90;56.00
71237;DHT22;58984;51.960;5.582;2023-03-08T10:21:07;8.90;56.10
71237;DHT22;58984;51.960;5.582;2023-03-08T10:23:35;8.90;56.10
71237;DHT22;58984;51.960;5.582;2023-03-08T10:26:07;9.00;56.20
71237;DHT22;58984;51.960;5.582;2023-03-08T10:28:34;9.00;56.30
71237;DHT22;58984;51.960;5.582;2023-03-08T10:31:01;9.00;56.20
71237;DHT22;58984;51.960;5.582;2023-03-08T10:33:34;9.00;56.10
71237;DHT22;58984;51.960;5.582;2023-03-08T10:36:08;9.10;56.10
71237;DHT22;58984;51.960;5.582;2023-03-08T10:38:37;9.10;56.10
71237;DHT22;58984;51.960;5.582;2023-03-08T10:43:49;9.10;56.20
71237;DHT22;58984;51.960;5.582;2023-03-08T10:46:17;9.20;56.30
71237;DHT22;58984;51.960;5.582;2023-03-08T10:48:44;9.20;56.20
71237;DHT22;58984;51.960;5.582;2023-03-08T10:51:19;9.20;56.20
71237;DHT22;58984;51.960;5.582;2023-03-08T10:53:56;9.20;56.10
71237;DHT22;58984;51.960;5.582;2023-03-08T10:59:03;9.30;56.10
71237;DHT22;58984;51.960;5.582;2023-03-08T11:01:33;9.30;56.10
71237;DHT22;58984;51.960;5.582;2023-03-08T11:04:02;9.30;56.10
71237;DHT22;58984;51.960;5.582;2023-03-08T11:06:29;9.40;56.20
71237;DHT22;58984;51.960;5.582;2023-03-08T11:08:58;9.40;56.20
71237;DHT22;58984;51.960;5.582;2023-03-08T11:11:25;9.40;56.30
71237;DHT22;58984;51.960;5.582;2023-03-08T11:13:52;9.40;56.20
71237;DHT22;58984;51.960;5.582;2023-03-08T11:16:37;9.40;56.10
71237;DHT22;58984;51.960;5.582;2023-03-08T11:19:25;9.40;56.00
71237;DHT22;58984;51.960;5.582;2023-03-08T11:30:13;9.50;55.80
71237;DHT22;58984;51.960;5.582;2023-03-08T11:37:45;9.50;55.60
71237;DHT22;58984;51.960;5.582;2023-03-08T11:40:23;9.50;55.50
71237;DHT22;58984;51.960;5.582;2023-03-08T11:43:14;9.60;55.50
71237;DHT22;58984;51.960;5.582;2023-03-08T11:46:05;9.50;55.30
71237;DHT22;58984;51.960;5.582;2023-03-08T11:57:28;9.60;55.40
71237;DHT22;58984;51.960;5.582;2023-03-08T12:00:04;9.60;55.30
71237;DHT22;58984;51.960;5.582;2023-03-08T12:02:40;9.60;55.30
71237;DHT22;58984;51.960;5.582;2023-03-08T12:05:25;9.60;55.20
71237;DHT22;58984;51.960;5.582;2023-03-08T12:10:44;9.60;55.00
71237;DHT22;58984;51.960;5.582;2023-03-08T12:13:43;9.60;55.00
71237;DHT22;58984;51.960;5.582;2023-03-08T12:19:13;9.60;55.00
71237;DHT22;58984;51.960;5.582;2023-03-08T12:27:04;9.70;55.30
71237;DHT22;58984;51.960;5.582;2023-03-08T12:29:44;9.70;55.00
71237;DHT22;58984;51.960;5.582;2023-03-08T12:32:12;9.70;55.00
71237;DHT22;58984;51.960;5.582;2023-03-08T12:34:41;9.70;55.10
71237;DHT22;58984;51.960;5.582;2023-03-08T12:37:20;9.70;55.00
71237;DHT22;58984;51.960;5.582;2023-03-08T12:43:07;9.70;55.00
71237;DHT22;58984;51.960;5.582;2023-03-08T12:45:33;9.70;55.10
71237;DHT22;58984;51.960;5.582;2023-03-08T12:50:54;9.70;55.00
71237;DHT22;58984;51.960;5.582;2023-03-08T12:53:23;9.80;55.10
71237;DHT22;58984;51.960;5.582;2023-03-08T12:58:30;9.80;54.90
71237;DHT22;58984;51.960;5.582;2023-03-08T13:01:03;9.80;54.90
71237;DHT22;58984;51.960;5.582;2023-03-08T13:03:37;9.80;54.80
71237;DHT22;58984;51.960;5.582;2023-03-08T13:06:42;9.80;54.80
71237;DHT22;58984;51.960;5.582;2023-03-08T13:09:31;9.80;54.70
71237;DHT22;58984;51.960;5.582;2023-03-08T13:14:42;9.70;54.50
71237;DHT22;58984;51.960;5.582;2023-03-08T13:19:57;9.70;54.50
71237;DHT22;58984;51.960;5.582;2023-03-08T13:22:49;9.80;54.60
71237;DHT22;58984;51.960;5.582;2023-03-08T13:28:12;9.80;54.50
71237;DHT22;58984;51.960;5.582;2023-03-08T13:33:26;9.80;54.60
71237;DHT22;58984;51.960;5.582;2023-03-08T13:36:03;9.80;54.60
71237;DHT22;58984;51.960;5.582;2023-03-08T13:38:32;9.80;54.70
71237;DHT22;58984;51.960;5.582;2023-03-08T13:40:58;9.80;54.70
71237;DHT22;58984;51.960;5.582;2023-03-08T13:43:28;9.80;54.70
71237;DHT22;58984;51.960;5.582;2023-03-08T13:45:56;9.80;54.70
71237;DHT22;58984;51.960;5.582;2023-03-08T13:48:25;9.80;54.70
71237;DHT22;58984;51.960;5.582;2023-03-08T13:50:51;9.80;54.70
71237;DHT22;58984;51.960;5.582;2023-03-08T13:53:20;9.80;54.70
71237;DHT22;58984;51.960;5.582;2023-03-08T13:55:48;9.80;54.70
71237;DHT22;58984;51.960;5.582;2023-03-08T14:01:16;9.80;54.70
71237;DHT22;58984;51.960;5.582;2023-03-08T14:03:43;9.80;54.50
71237;DHT22;58984;51.960;5.582;2023-03-08T14:06:27;9.80;54.40
71237;DHT22;58984;51.960;5.582;2023-03-08T14:08:53;9.80;54.30
71237;DHT22;58984;51.960;5.582;2023-03-08T14:11:31;9.80;54.40
71237;DHT22;58984;51.960;5.582;2023-03-08T14:14:00;9.80;54.40
71237;DHT22;58984;51.960;5.582;2023-03-08T14:16:31;9.80;54.50
71237;DHT22;58984;51.960;5.582;2023-03-08T14:19:08;9.90;54.60
71237;DHT22;58984;51.960;5.582;2023-03-08T14:21:34;9.80;54.50
71237;DHT22;58984;51.960;5.582;2023-03-08T14:24:01;9.90;54.50
71237;DHT22;58984;51.960;5.582;2023-03-08T14:26:36;9.90;54.50
71237;DHT22;58984;51.960;5.582;2023-03-08T14:31:36;9.80;54.60
71237;DHT22;58984;51.960;5.582;2023-03-08T14:34:19;9.90;54.60
71237;DHT22;58984;51.960;5.582;2023-03-08T14:36:57;9.90;54.60
71237;DHT22;58984;51.960;5.582;2023-03-08T14:39:26;9.90;54.70
71237;DHT22;58984;51.960;5.582;2023-03-08T14:41:52;9.90;54.80
71237;DHT22;58984;51.960;5.582;2023-03-08T14:44:27;9.90;54.90
71237;DHT22;58984;51.960;5.582;2023-03-08T14:46:53;9.90;55.00
71237;DHT22;58984;51.960;5.582;2023-03-08T14:49:27;9.90;55.10
71237;DHT22;58984;51.960;5.582;2023-03-08T14:51:53;9.90;55.10
71237;DHT22;58984;51.960;5.582;2023-03-08T14:54:32;9.90;54.90
71237;DHT22;58984;51.960;5.582;2023-03-08T14:57:12;9.90;55.00
71237;DHT22;58984;51.960;5.582;2023-03-08T14:59:39;9.90;55.10
71237;DHT22;58984;51.960;5.582;2023-03-08T15:02:10;9.90;55.20
71237;DHT22;58984;51.960;5.582;2023-03-08T15:04:37;9.90;55.20
71237;DHT22;58984;51.960;5.582;2023-03-08T15:07:03;10.00;54.40
71237;DHT22;58984;51.960;5.582;2023-03-08T15:09:29;10.00;54.40
71237;DHT22;58984;51.960;5.582;2023-03-08T15:11:56;10.00;54.40
71237;DHT22;58984;51.960;5.582;2023-03-08T15:14:25;10.00;54.40
71237;DHT22;58984;51.960;5.582;2023-03-08T15:16:52;10.00;54.40
71237;DHT22;58984;51.960;5.582;2023-03-08T15:19:20;10.00;54.40
71237;DHT22;58984;51.960;5.582;2023-03-08T15:21:46;10.00;54.40
71237;DHT22;58984;51.960;5.582;2023-03-08T15:24:17;10.00;54.40
71237;DHT22;58984;51.960;5.582;2023-03-08T15:26:43;10.00;54.40
71237;DHT22;58984;51.960;5.582;2023-03-08T15:31:52;10.00;54.40
71237;DHT22;58984;51.960;5.582;2023-03-08T15:34:18;10.00;54.40
71237;DHT22;58984;51.960;5.582;2023-03-08T15:36:43;10.00;54.40
71237;DHT22;58984;51.960;5.582;2023-03-08T15:39:11;10.00;54.40
71237;DHT22;58984;51.960;5.582;2023-03-08T15:41:37;10.00;54.40
71237;DHT22;58984;51.960;5.582;2023-03-08T15:44:03;10.00;54.40
71237;DHT22;58984;51.960;5.582;2023-03-08T15:46:28;10.00;54.40
71237;DHT22;58984;51.960;5.582;2023-03-08T15:48:54;10.00;54.40
71237;DHT22;58984;51.960;5.582;2023-03-08T15:51:21;10.00;54.40
71237;DHT22;58984;51.960;5.582;2023-03-08T15:53:47;10.00;54.40
71237;DHT22;58984;51.960;5.582;2023-03-08T15:56:13;10.00;54.50
71237;DHT22;58984;51.960;5.582;2023-03-08T15:58:39;10.00;54.60
71237;DHT22;58984;51.960;5.582;2023-03-08T16:01:05;9.90;55.50
71237;DHT22;58984;51.960;5.582;2023-03-08T16:03:31;10.00;54.70
71237;DHT22;58984;51.960;5.582;2023-03-08T16:05:59;10.00;54.80
71237;DHT22;58984;51.960;5.582;2023-03-08T16:08:26;9.90;55.50
71237;DHT22;58984;51.960;5.582;2023-03-08T16:10:53;10.00;54.70
71237;DHT22;58984;51.960;5.582;2023-03-08T16:13:18;10.00;54.70
71237;DHT22;58984;51.960;5.582;2023-03-08T16:15:47;10.00;54.70
71237;DHT22;58984;51.960;5.582;2023-03-08T16:18:13;10.00;54.70
71237;DHT22;58984;51.960;5.582;2023-03-08T16:20:39;10.00;54.70
71237;DHT22;58984;51.960;5.582;2023-03-08T16:23:05;10.00;54.70
71237;DHT22;58984;51.960;5.582;2023-03-08T16:25:31;9.90;55.40
71237;DHT22;58984;51.960;5.582;2023-03-08T16:27:57;9.90;55.50
71237;DHT22;58984;51.960;5.582;2023-03-08T16:30:23;9.90;55.40
71237;DHT22;58984;51.960;5.582;2023-03-08T16:32:52;9.90;55.50
71237;DHT22;58984;51.960;5.582;2023-03-08T16:35:19;9.90;55.50
71237;DHT22;58984;51.960;5.582;2023-03-08T16:37:44;9.90;55.60
71237;DHT22;58984;51.960;5.582;2023-03-08T16:40:10;9.90;55.60
71237;DHT22;58984;51.960;5.582;2023-03-08T16:42:38;9.90;55.60
71237;DHT22;58984;51.960;5.582;2023-03-08T16:45:04;9.90;55.50
71237;DHT22;58984;51.960;5.582;2023-03-08T16:47:30;9.90;55.50
71237;DHT22;58984;51.960;5.582;2023-03-08T16:49:57;9.90;55.40
71237;DHT22;58984;51.960;5.582;2023-03-08T16:52:23;9.90;55.40
71237;DHT22;58984;51.960;5.582;2023-03-08T16:54:49;9.90;55.40
71237;DHT22;58984;51.960;5.582;2023-03-08T16:57:15;9.90;55.40
71237;DHT22;58984;51.960;5.582;2023-03-08T16:59:42;9.90;55.50
71237;DHT22;58984;51.960;5.582;2023-03-08T17:02:26;9.90;55.40
71237;DHT22;58984;51.960;5.582;2023-03-08T17:04:52;9.80;55.40
71237;DHT22;58984;51.960;5.582;2023-03-08T17:07:17;9.90;55.40
71237;DHT22;58984;51.960;5.582;2023-03-08T17:09:43;9.90;55.40
71237;DHT22;58984;51.960;5.582;2023-03-08T17:12:10;9.80;55.30